Time;durP1;ratioP1;P1;durP2;ratioP2;P2;SDS_P1;SDS_P2;PMS_P1;PMS_P2;Temp;Humidity;BMP_temperature;BMP_pressure;BME280_temperature;BME280_humidity;BME280_pressure;Samples;Min_cycle;Max_cycle;Signal;HPM_P1;HPM_P2
2023/08/31 00:00:15;;;;;;;5.47;5.07;;;16.80;1.00;;;;;;5060205;28;20455;-78
2023/08/31 00:02:43;;;;;;;6.10;5.37;;;16.80;1.00;;;;;;5060148;28;20460;-79
2023/08/31 00:05:11;;;;;;;4.97;4.63;;;16.90;1.00;;;;;;5057518;27;20451;-78
2023/08/31 00:07:38;;;;;;;6.17;5.40;;;17.00;1.00;;;;;;5058787;28;20560;-79
2023/08/31 00:10:09;;;;;;;5.50;5.03;;;17.00;1.00;;;;;;5057393;28;21184;-79
2023/08/31 00:12:37;;;;;;;5.00;4.60;;;17.00;1.00;;;;;;5061666;28;20461;-79
2023/08/31 00:15:05;;;;;;;5.60;5.17;;;17.00;1.00;;;;;;5058530;28;20938;-79
2023/08/31 00:17:34;;;;;;;5.87;5.37;;;17.00;1.00;;;;;;5056839;28;20473;-78
2023/08/31 00:20:05;;;;;;;5.43;5.03;;;17.00;1.00;;;;;;5038569;28;20479;-78
2023/08/31 00:22:34;;;;;;;6.17;5.67;;;17.00;1.00;;;;;;5040349;28;20499;-79
2023/08/31 00:25:01;;;;;;;6.07;5.57;;;17.00;1.00;;;;;;5060684;28;20582;-78
2023/08/31 00:27:29;;;;;;;6.13;5.70;;;17.00;1.00;;;;;;5061092;28;20472;-78
2023/08/31 00:29:57;;;;;;;5.90;5.40;;;17.00;1.00;;;;;;5057246;27;20447;-79
2023/08/31 00:32:24;;;;;;;5.73;5.33;;;17.00;1.00;;;;;;5061952;28;20591;-80
2023/08/31 00:34:52;;;;;;;6.57;5.37;;;17.00;1.00;;;;;;5057198;28;20472;-79
2023/08/31 00:37:21;;;;;;;6.43;5.90;;;17.00;1.00;;;;;;5056968;28;20467;-79
2023/08/31 00:39:51;;;;;;;7.07;6.53;;;17.00;1.00;;;;;;5060639;27;20467;-80
2023/08/31 00:42:19;;;;;;;5.33;4.93;;;16.90;1.00;;;;;;5049501;28;20495;-77
2023/08/31 00:44:47;;;;;;;6.43;5.70;;;16.90;1.00;;;;;;5037467;28;20472;-78
2023/08/31 00:47:14;;;;;;;6.30;5.77;;;16.90;1.00;;;;;;5053456;28;20460;-77
2023/08/31 00:49:42;;;;;;;6.17;5.57;;;16.90;1.00;;;;;;5044742;28;20547;-77
2023/08/31 00:52:09;;;;;;;5.53;5.13;;;16.90;1.00;;;;;;5036298;28;21141;-78
2023/08/31 00:54:37;;;;;;;5.37;4.97;;;17.00;1.00;;;;;;5039694;28;20464;-79
2023/08/31 00:57:06;;;;;;;6.10;5.60;;;17.00;1.00;;;;;;5056597;28;20529;-78
2023/08/31 00:59:33;;;;;;;5.80;5.40;;;17.00;1.00;;;;;;5057531;28;20456;-79
2023/08/31 01:02:08;;;;;;;5.80;5.23;;;17.00;1.00;;;;;;5060800;28;20476;-81
2023/08/31 01:04:54;;;;;;;6.43;5.90;;;17.00;1.00;;;;;;5053484;28;20463;-80
2023/08/31 01:07:31;;;;;;;6.47;5.97;;;17.00;1.00;;;;;;5059810;28;21286;-77
2023/08/31 01:10:06;;;;;;;5.37;4.90;;;16.90;1.00;;;;;;5060767;28;20509;-79
2023/08/31 01:12:41;;;;;;;5.80;5.40;;;16.80;1.00;;;;;;5062042;28;20459;-79
2023/08/31 01:15:12;;;;;;;5.67;5.27;;;16.80;1.00;;;;;;5061069;28;21337;-78
2023/08/31 01:17:48;;;;;;;6.67;6.17;;;16.80;1.00;;;;;;5063018;28;20529;-79
2023/08/31 01:20:20;;;;;;;6.40;5.90;;;16.70;1.00;;;;;;5058766;28;20540;-79
2023/08/31 01:22:56;;;;;;;5.60;5.20;;;16.80;1.00;;;;;;5063987;28;20887;-78
2023/08/31 01:25:26;;;;;;;5.40;5.00;;;16.70;1.00;;;;;;5062827;28;20547;-78
2023/08/31 01:27:53;;;;;;;5.23;4.83;;;16.60;1.00;;;;;;5059846;28;20482;-78
2023/08/31 01:30:21;;;;;;;4.83;4.53;;;16.60;1.00;;;;;;5066787;28;20451;-78
2023/08/31 01:32:49;;;;;;;5.20;4.80;;;16.50;1.00;;;;;;5064897;28;20992;-79
2023/08/31 01:35:18;;;;;;;5.37;4.77;;;16.40;1.00;;;;;;5053785;27;20533;-79
2023/08/31 01:37:49;;;;;;;5.37;4.97;;;16.40;1.00;;;;;;5064419;27;20471;-79
2023/08/31 01:40:19;;;;;;;5.13;4.73;;;16.40;1.00;;;;;;5052157;27;20482;-79
2023/08/31 01:42:49;;;;;;;5.40;5.00;;;16.50;1.00;;;;;;5054681;28;20476;-81
2023/08/31 01:45:20;;;;;;;5.07;4.60;;;16.50;1.00;;;;;;5055800;28;20452;-77
2023/08/31 01:47:47;;;;;;;5.07;4.67;;;16.40;1.00;;;;;;5046298;28;20563;-78
2023/08/31 01:50:14;;;;;;;4.67;4.37;;;16.40;1.00;;;;;;5040058;28;20452;-77
2023/08/31 01:52:41;;;;;;;4.57;4.17;;;16.30;1.00;;;;;;5044548;28;20464;-77
2023/08/31 01:55:08;;;;;;;5.07;4.70;;;16.40;1.00;;;;;;5041467;28;20946;-78
2023/08/31 01:57:35;;;;;;;4.43;4.13;;;16.40;1.00;;;;;;5049709;28;20537;-79
2023/08/31 02:00:05;;;;;;;4.50;4.10;;;16.40;1.00;;;;;;5044961;28;20484;-78
2023/08/31 02:02:33;;;;;;;4.10;3.80;;;16.30;1.00;;;;;;5043764;28;20480;-77
2023/08/31 02:05:01;;;;;;;4.00;3.70;;;16.20;1.00;;;;;;5040957;28;20919;-77
2023/08/31 02:07:28;;;;;;;4.27;3.97;;;16.20;1.00;;;;;;5067307;27;20486;-78
2023/08/31 02:09:58;;;;;;;4.47;4.07;;;16.00;1.00;;;;;;5046002;28;20535;-77
2023/08/31 02:12:25;;;;;;;5.83;4.30;;;16.00;1.00;;;;;;5042747;28;20516;-77
2023/08/31 02:14:53;;;;;;;4.77;4.30;;;16.00;1.00;;;;;;5038905;28;20456;-78
2023/08/31 02:17:21;;;;;;;4.57;4.27;;;15.90;1.00;;;;;;5045011;28;20472;-78
2023/08/31 02:19:48;;;;;;;4.20;3.90;;;15.80;1.00;;;;;;5047055;28;20502;-79
2023/08/31 02:22:15;;;;;;;4.83;4.33;;;15.80;1.00;;;;;;5052424;28;20510;-78
2023/08/31 02:24:42;;;;;;;4.03;3.73;;;15.70;1.00;;;;;;5050158;28;20495;-78
2023/08/31 02:27:09;;;;;;;4.40;4.00;;;15.60;1.00;;;;;;5043291;28;21264;-78
2023/08/31 02:29:36;;;;;;;3.00;2.67;;;15.60;1.00;;;;;;5041584;28;21033;-77
2023/08/31 02:32:05;;;;;;;2.90;2.70;;;15.50;1.00;;;;;;5042624;27;20475;-79
2023/08/31 02:34:33;;;;;;;3.27;2.77;;;15.40;1.00;;;;;;5039989;28;20979;-77
2023/08/31 02:37:01;;;;;;;3.13;2.80;;;15.30;1.00;;;;;;5041594;28;20583;-79
2023/08/31 02:39:27;;;;;;;4.67;4.30;;;15.30;1.00;;;;;;5064563;28;20457;-78
2023/08/31 02:41:54;;;;;;;4.80;2.40;;;15.30;1.00;;;;;;5056591;28;20569;-78
2023/08/31 02:44:20;;;;;;;3.13;2.67;;;15.30;1.00;;;;;;5058636;28;20455;-78
2023/08/31 02:46:47;;;;;;;2.90;2.70;;;15.30;1.00;;;;;;5066237;27;20511;-78
2023/08/31 02:49:14;;;;;;;3.03;2.77;;;15.30;1.00;;;;;;5059246;28;20532;-78
2023/08/31 02:51:43;;;;;;;3.10;2.40;;;15.30;1.00;;;;;;5065004;28;20577;-78
2023/08/31 02:54:10;;;;;;;2.97;2.77;;;15.20;1.00;;;;;;5060155;28;20958;-79
2023/08/31 02:56:37;;;;;;;2.80;2.37;;;15.10;1.00;;;;;;5066735;28;20506;-78
2023/08/31 02:59:04;;;;;;;3.37;3.00;;;15.00;1.00;;;;;;5061807;28;20466;-79
2023/08/31 03:01:31;;;;;;;3.10;2.80;;;15.00;1.00;;;;;;5062514;28;20466;-79
2023/08/31 03:03:58;;;;;;;2.77;2.57;;;14.90;1.00;;;;;;5062371;28;20681;-78
2023/08/31 03:06:26;;;;;;;3.17;2.87;;;14.90;1.00;;;;;;5064311;27;20561;-79
2023/08/31 03:08:55;;;;;;;3.57;2.80;;;14.90;1.00;;;;;;5059732;28;20525;-78
2023/08/31 03:11:22;;;;;;;2.77;2.57;;;14.90;1.00;;;;;;5061741;28;20459;-78
2023/08/31 03:13:49;;;;;;;3.90;3.60;;;14.90;1.00;;;;;;5059847;28;20470;-78
2023/08/31 03:16:15;;;;;;;3.73;3.43;;;14.90;1.00;;;;;;5060345;28;20463;-79
2023/08/31 03:18:43;;;;;;;3.50;3.20;;;14.90;1.00;;;;;;5060585;28;20490;-78
2023/08/31 03:21:10;;;;;;;4.53;4.13;;;14.90;1.00;;;;;;5059695;28;20562;-78
2023/08/31 03:23:37;;;;;;;3.80;3.50;;;14.90;1.00;;;;;;5044701;27;20487;-77
2023/08/31 03:26:09;;;;;;;3.70;3.40;;;14.90;1.00;;;;;;5038886;28;21325;-78
2023/08/31 03:28:38;;;;;;;3.37;3.17;;;14.90;1.00;;;;;;5057938;28;21116;-78
2023/08/31 03:31:05;;;;;;;4.00;3.60;;;14.80;1.00;;;;;;5062706;27;20471;-80
2023/08/31 03:33:32;;;;;;;4.47;4.07;;;14.70;1.00;;;;;;5064143;28;20886;-79
2023/08/31 03:36:02;;;;;;;3.73;3.43;;;14.70;1.00;;;;;;5060629;28;20478;-78
2023/08/31 03:38:29;;;;;;;3.67;3.37;;;14.70;1.00;;;;;;5063225;28;20462;-79
2023/08/31 03:40:57;;;;;;;3.40;3.13;;;14.70;1.00;;;;;;5065543;28;20560;-79
2023/08/31 03:43:25;;;;;;;3.40;3.10;;;14.70;1.00;;;;;;5063342;28;20458;-79
2023/08/31 03:45:56;;;;;;;3.33;2.97;;;14.60;1.00;;;;;;5050829;28;20558;-79
2023/08/31 03:48:24;;;;;;;3.33;3.00;;;14.60;1.00;;;;;;5047967;28;20498;-78
2023/08/31 03:50:52;;;;;;;3.57;3.27;;;14.70;1.00;;;;;;5046196;28;20459;-79
2023/08/31 03:53:22;;;;;;;3.50;2.87;;;14.80;1.00;;;;;;5046013;28;20459;-79
2023/08/31 03:55:49;;;;;;;3.20;2.90;;;14.70;1.00;;;;;;5048514;28;20478;-80
2023/08/31 03:58:17;;;;;;;4.20;3.80;;;14.80;1.00;;;;;;5066749;28;20926;-79
2023/08/31 04:00:46;;;;;;;3.93;3.47;;;14.90;1.00;;;;;;5065144;28;20474;-79
2023/08/31 04:03:12;;;;;;;4.17;3.83;;;15.00;1.00;;;;;;5062383;28;20462;-79
2023/08/31 04:05:39;;;;;;;4.07;3.67;;;14.90;1.00;;;;;;5050945;28;20455;-78
2023/08/31 04:08:07;;;;;;;4.93;4.37;;;14.90;1.00;;;;;;5048377;28;20455;-79
2023/08/31 04:10:34;;;;;;;4.43;4.03;;;15.00;1.00;;;;;;5045461;28;20506;-79
2023/08/31 04:13:01;;;;;;;4.50;4.10;;;15.10;1.00;;;;;;5051232;28;20636;-78
2023/08/31 04:15:28;;;;;;;5.23;4.83;;;15.10;1.00;;;;;;5058725;28;20483;-78
2023/08/31 04:17:56;;;;;;;5.10;4.60;;;15.20;1.00;;;;;;5044717;28;20507;-78
2023/08/31 04:20:23;;;;;;;7.80;7.10;;;15.10;1.00;;;;;;5052443;28;20570;-79
2023/08/31 04:22:50;;;;;;;6.10;5.57;;;15.10;1.00;;;;;;5046161;28;20591;-78
2023/08/31 04:25:17;;;;;;;5.67;5.17;;;15.10;1.00;;;;;;5046564;28;20467;-78
2023/08/31 04:27:45;;;;;;;7.57;6.80;;;15.00;1.00;;;;;;5046229;28;20560;-79
2023/08/31 04:30:13;;;;;;;6.90;6.30;;;15.00;1.00;;;;;;5044278;28;20927;-79
2023/08/31 04:32:39;;;;;;;7.53;6.83;;;15.00;1.00;;;;;;5050114;28;20592;-81
2023/08/31 04:35:09;;;;;;;7.17;6.57;;;15.00;1.00;;;;;;5068073;28;20467;-80
2023/08/31 04:37:36;;;;;;;6.93;6.33;;;14.90;1.00;;;;;;5050057;28;20458;-81
2023/08/31 04:40:04;;;;;;;6.90;6.30;;;14.90;1.00;;;;;;5044446;28;20523;-79
2023/08/31 04:42:31;;;;;;;8.17;7.47;;;14.90;1.00;;;;;;5046851;28;20979;-81
2023/08/31 04:44:58;;;;;;;7.57;6.87;;;14.90;1.00;;;;;;5046495;28;20497;-81
2023/08/31 04:47:25;;;;;;;7.33;6.73;;;15.00;1.00;;;;;;5049900;28;20505;-80
2023/08/31 04:49:52;;;;;;;9.93;9.10;;;15.00;1.00;;;;;;5049637;28;20429;-81
2023/08/31 04:52:21;;;;;;;7.97;7.27;;;15.10;1.00;;;;;;5048129;28;20523;-79
2023/08/31 04:54:48;;;;;;;9.00;8.17;;;15.10;1.00;;;;;;5063457;28;20463;-80
2023/08/31 04:57:15;;;;;;;7.87;7.17;;;15.10;1.00;;;;;;5065268;28;20594;-80
2023/08/31 04:59:42;;;;;;;8.90;8.10;;;15.00;1.00;;;;;;5049383;28;21933;-79
2023/08/31 05:02:09;;;;;;;9.27;8.37;;;15.00;1.00;;;;;;5045953;28;20451;-81
2023/08/31 05:04:36;;;;;;;8.70;8.00;;;15.00;1.00;;;;;;5046787;28;22319;-81
2023/08/31 05:07:03;;;;;;;8.80;8.00;;;15.00;1.00;;;;;;5064442;28;20975;-81
2023/08/31 05:09:34;;;;;;;9.70;8.80;;;15.00;1.00;;;;;;5066380;28;21281;-80
2023/08/31 05:12:01;;;;;;;10.50;9.53;;;14.90;1.00;;;;;;5068014;28;20472;-79
2023/08/31 05:14:28;;;;;;;9.03;8.23;;;14.90;1.00;;;;;;5062142;28;20473;-79
2023/08/31 05:16:57;;;;;;;9.33;8.43;;;15.00;1.00;;;;;;5060937;28;20477;-81
2023/08/31 05:19:27;;;;;;;10.50;9.50;;;15.00;1.00;;;;;;5071102;28;20476;-81
2023/08/31 05:21:55;;;;;;;9.33;8.50;;;15.00;1.00;;;;;;5065513;27;20423;-80
2023/08/31 05:24:22;;;;;;;8.93;8.10;;;15.00;1.00;;;;;;5063862;28;20470;-80
2023/08/31 05:26:50;;;;;;;10.97;9.97;;;15.10;1.00;;;;;;5069282;28;20662;-84
2023/08/31 05:29:19;;;;;;;9.87;8.87;;;15.10;1.00;;;;;;5066706;27;20467;-81
2023/08/31 05:31:46;;;;;;;9.90;8.93;;;15.10;1.00;;;;;;5070957;28;20458;-82
2023/08/31 05:34:18;;;;;;;9.87;8.93;;;15.10;1.00;;;;;;5068360;28;20444;-81
2023/08/31 05:36:45;;;;;;;10.40;9.33;;;15.10;1.00;;;;;;5072596;28;20900;-83
2023/08/31 05:39:23;;;;;;;10.43;9.53;;;15.20;1.00;;;;;;5052316;28;20562;-84
2023/08/31 05:41:51;;;;;;;10.70;9.70;;;15.10;1.00;;;;;;5047170;28;20459;-83
2023/08/31 05:44:18;;;;;;;11.07;10.00;;;15.10;1.00;;;;;;5061754;28;20456;-84
2023/08/31 05:46:48;;;;;;;10.13;9.23;;;15.20;1.00;;;;;;5058786;28;20450;-84
2023/08/31 05:49:15;;;;;;;10.83;9.93;;;15.10;1.00;;;;;;5043228;28;20540;-84
2023/08/31 05:51:43;;;;;;;11.80;9.67;;;15.10;1.00;;;;;;5071842;28;20525;-85
2023/08/31 05:54:13;;;;;;;11.80;10.60;;;15.20;1.00;;;;;;5069839;28;20431;-81
2023/08/31 05:56:40;;;;;;;10.20;9.10;;;15.30;1.00;;;;;;5072396;28;20490;-79
2023/08/31 05:59:09;;;;;;;10.60;9.53;;;15.30;1.00;;;;;;5074671;27;20521;-82
2023/08/31 06:01:37;;;;;;;9.50;8.60;;;15.40;1.00;;;;;;5071391;28;20501;-81
2023/08/31 06:04:05;;;;;;;9.70;8.80;;;15.30;1.00;;;;;;5071252;27;21250;-80
2023/08/31 06:06:33;;;;;;;10.20;9.30;;;15.30;1.00;;;;;;5069338;28;20447;-79
2023/08/31 06:09:01;;;;;;;10.80;9.80;;;15.30;1.00;;;;;;5071809;28;20471;-79
2023/08/31 06:11:28;;;;;;;10.13;9.17;;;15.30;1.00;;;;;;5070080;28;20459;-80
2023/08/31 06:14:05;;;;;;;11.43;10.43;;;15.40;1.00;;;;;;5070198;27;20475;-81
2023/08/31 06:16:39;;;;;;;9.40;8.57;;;15.50;1.00;;;;;;5057548;28;20452;-79
2023/08/31 06:19:15;;;;;;;15.10;13.90;;;15.60;1.00;;;;;;5045721;28;20464;-80
2023/08/31 06:21:42;;;;;;;10.20;9.30;;;15.60;1.00;;;;;;5047468;28;20456;-80
2023/08/31 06:24:12;;;;;;;10.30;9.40;;;15.70;1.00;;;;;;5048414;28;20977;-79
2023/08/31 06:26:39;;;;;;;9.60;8.90;;;15.90;1.00;;;;;;5061186;28;20458;-78
2023/08/31 06:29:10;;;;;;;10.13;8.80;;;16.00;1.00;;;;;;5066693;28;20436;-79
2023/08/31 06:31:39;;;;;;;8.87;8.17;;;16.00;1.00;;;;;;5065858;28;20461;-78
2023/08/31 06:34:06;;;;;;;8.50;7.70;;;16.00;1.00;;;;;;5065171;28;20462;-77
2023/08/31 06:36:33;;;;;;;7.87;7.27;;;16.00;1.00;;;;;;5051289;28;20452;-78
2023/08/31 06:39:00;;;;;;;10.20;9.07;;;16.00;1.00;;;;;;5055259;28;20454;-79
2023/08/31 06:41:27;;;;;;;9.07;8.27;;;16.00;1.00;;;;;;5051594;28;20527;-79
2023/08/31 06:43:54;;;;;;;9.70;8.77;;;16.10;1.00;;;;;;5044170;28;20484;-80
2023/08/31 06:46:22;;;;;;;8.80;7.90;;;16.10;1.00;;;;;;5057361;28;20477;-78
2023/08/31 06:48:52;;;;;;;9.23;8.33;;;16.20;1.00;;;;;;5043447;28;20429;-82
2023/08/31 06:51:19;;;;;;;9.33;8.40;;;16.10;1.00;;;;;;5042312;28;20491;-80
2023/08/31 06:53:49;;;;;;;9.30;8.50;;;16.10;1.00;;;;;;5048705;28;20468;-82
2023/08/31 06:56:16;;;;;;;8.30;7.40;;;16.20;1.00;;;;;;5044864;28;20514;-78
2023/08/31 06:58:44;;;;;;;8.53;7.83;;;16.30;1.00;;;;;;5046700;28;20577;-78
2023/08/31 07:01:12;;;;;;;8.77;7.97;;;16.30;1.00;;;;;;5042473;28;20456;-78
2023/08/31 07:03:39;;;;;;;9.20;7.47;;;16.30;1.00;;;;;;5044268;28;20882;-79
2023/08/31 07:06:07;;;;;;;10.40;7.00;;;16.40;1.00;;;;;;5042550;28;20556;-80
2023/08/31 07:08:36;;;;;;;8.23;7.50;;;16.40;1.00;;;;;;5048886;28;20966;-78
2023/08/31 07:11:05;;;;;;;9.83;8.83;;;16.40;1.00;;;;;;5055627;28;20478;-79
2023/08/31 07:13:32;;;;;;;8.57;7.77;;;16.30;1.00;;;;;;5045176;28;20487;-79
2023/08/31 07:15:59;;;;;;;9.20;7.93;;;16.30;1.00;;;;;;5043466;28;20457;-79
2023/08/31 07:18:26;;;;;;;8.70;7.80;;;16.40;1.00;;;;;;5041440;28;20487;-77
2023/08/31 07:20:53;;;;;;;8.87;8.13;;;16.40;1.00;;;;;;5053166;28;21347;-78
2023/08/31 07:23:21;;;;;;;7.80;7.20;;;16.40;1.00;;;;;;5045285;28;20491;-79
2023/08/31 07:25:48;;;;;;;7.60;7.00;;;16.40;1.00;;;;;;5047128;28;21168;-80
2023/08/31 07:28:15;;;;;;;9.37;7.47;;;16.40;1.00;;;;;;5045952;28;20546;-79
2023/08/31 07:30:48;;;;;;;8.50;7.37;;;16.40;1.00;;;;;;5047632;28;20457;-78
2023/08/31 07:33:15;;;;;;;8.00;6.60;;;16.40;1.00;;;;;;5051744;28;20475;-79
2023/08/31 07:35:42;;;;;;;7.80;6.50;;;16.40;1.00;;;;;;5062187;28;20432;-78
2023/08/31 07:38:09;;;;;;;8.47;6.50;;;16.50;1.00;;;;;;5051757;27;20487;-78
2023/08/31 07:40:41;;;;;;;6.50;5.90;;;16.50;1.00;;;;;;5044340;28;20472;-80
2023/08/31 07:43:09;;;;;;;6.33;5.73;;;16.50;1.00;;;;;;5041910;28;20474;-78
2023/08/31 07:45:36;;;;;;;7.23;6.53;;;16.50;1.00;;;;;;5045760;28;20473;-79
2023/08/31 07:48:09;;;;;;;6.77;6.07;;;16.60;1.00;;;;;;5040188;28;20460;-80
2023/08/31 07:50:36;;;;;;;7.97;7.37;;;16.70;1.00;;;;;;5065116;28;20641;-80
2023/08/31 07:53:03;;;;;;;9.07;7.40;;;16.80;1.00;;;;;;5062526;28;20561;-79
2023/08/31 07:55:30;;;;;;;7.10;6.50;;;16.80;1.00;;;;;;5060513;28;20548;-80
2023/08/31 07:57:58;;;;;;;7.30;6.60;;;16.90;1.00;;;;;;5061060;28;20483;-77
2023/08/31 08:00:25;;;;;;;8.60;7.30;;;17.00;1.00;;;;;;5062696;28;21055;-77
2023/08/31 08:02:52;;;;;;;6.80;6.20;;;17.10;1.00;;;;;;5061434;28;20526;-81
2023/08/31 08:05:19;;;;;;;6.43;5.57;;;17.10;1.00;;;;;;5065771;28;20543;-80
2023/08/31 08:07:47;;;;;;;8.30;6.17;;;17.10;1.00;;;;;;5063257;28;20522;-79
2023/08/31 08:10:14;;;;;;;8.00;5.67;;;17.20;1.00;;;;;;5062498;28;20411;-80
2023/08/31 08:12:45;;;;;;;5.27;4.77;;;17.20;1.00;;;;;;5065442;28;21183;-78
2023/08/31 08:15:14;;;;;;;8.43;4.77;;;17.10;1.00;;;;;;5059492;28;20466;-76
2023/08/31 08:17:41;;;;;;;9.53;5.30;;;17.00;1.00;;;;;;5057669;28;20464;-76
2023/08/31 08:20:09;;;;;;;6.90;4.60;;;16.80;1.00;;;;;;5042267;28;20460;-80
2023/08/31 08:22:36;;;;;;;4.03;3.73;;;16.90;1.00;;;;;;5043894;28;20611;-79
2023/08/31 08:25:05;;;;;;;5.73;5.00;;;16.90;1.00;;;;;;5044382;28;20464;-81
2023/08/31 08:27:33;;;;;;;5.90;4.57;;;17.00;1.00;;;;;;5049541;28;20545;-84
2023/08/31 08:30:00;;;;;;;4.57;4.13;;;17.20;1.00;;;;;;5061890;28;21619;-82
2023/08/31 08:32:36;;;;;;;7.30;4.90;;;17.40;1.00;;;;;;5065115;28;20525;-87
2023/08/31 08:35:04;;;;;;;4.07;3.77;;;17.60;1.00;;;;;;5064129;27;20458;-85
2023/08/31 08:37:32;;;;;;;4.00;3.70;;;17.80;1.00;;;;;;5052804;27;20456;-83
2023/08/31 08:39:59;;;;;;;4.20;3.80;;;17.80;1.00;;;;;;5053233;28;20845;-87
2023/08/31 08:42:26;;;;;;;4.13;3.73;;;17.60;1.00;;;;;;5053001;28;20476;-86
2023/08/31 08:44:53;;;;;;;4.57;3.50;;;17.50;1.00;;;;;;5045648;28;20630;-85
2023/08/31 08:47:21;;;;;;;7.33;3.60;;;17.50;1.00;;;;;;5043315;28;20460;-86
2023/08/31 08:49:50;;;;;;;4.13;3.13;;;17.40;1.00;;;;;;5040331;28;20553;-85
2023/08/31 08:52:20;;;;;;;3.73;2.80;;;17.60;1.00;;;;;;5035270;28;20469;-84
2023/08/31 08:54:48;;;;;;;5.03;3.00;;;17.90;1.00;;;;;;5043424;28;20477;-77
2023/08/31 08:57:15;;;;;;;3.37;2.83;;;18.40;1.00;;;;;;5045927;28;20469;-83
2023/08/31 08:59:42;;;;;;;4.37;2.50;;;18.80;1.00;;;;;;5054248;28;20461;-81
2023/08/31 09:02:11;;;;;;;5.50;2.63;;;19.20;1.00;;;;;;5040837;28;20474;-82
2023/08/31 09:04:41;;;;;;;5.00;2.73;;;19.40;1.00;;;;;;5040118;28;20872;-85
2023/08/31 09:07:12;;;;;;;3.53;2.50;;;19.60;1.00;;;;;;5042276;28;20532;-87
2023/08/31 09:09:55;;;;;;;3.33;2.60;;;19.50;1.00;;;;;;5044702;28;20471;-79
2023/08/31 09:12:24;;;;;;;2.70;2.50;;;19.40;1.00;;;;;;5041961;28;20531;-84
2023/08/31 09:15:01;;;;;;;2.70;2.40;;;19.30;1.00;;;;;;5045931;28;20956;-81
2023/08/31 09:17:38;;;;;;;4.53;2.40;;;19.30;1.00;;;;;;5047418;28;20549;-82
2023/08/31 09:20:06;;;;;;;4.10;2.30;;;19.20;1.00;;;;;;5045996;28;20466;-82
2023/08/31 09:22:34;;;;;;;3.00;2.00;;;19.20;1.00;;;;;;5047290;28;20514;-84
2023/08/31 09:25:02;;;;;;;3.23;2.60;;;19.20;1.00;;;;;;5041837;28;20540;-76
2023/08/31 09:31:07;;;;;;;48.37;35.97;;;20.60;1.00;;;;;;5031639;28;20465;-78
2023/08/31 09:33:36;;;;;;;6.13;3.20;;;22.20;1.00;;;;;;5041817;28;20472;-81
2023/08/31 09:36:03;;;;;;;5.23;2.70;;;22.30;1.00;;;;;;5033353;28;20497;-83
2023/08/31 09:38:32;;;;;;;3.37;2.10;;;21.70;1.00;;;;;;5062355;28;20483;-77
2023/08/31 09:41:06;;;;;;;2.50;2.00;;;21.00;1.00;;;;;;5061228;28;20515;-80
2023/08/31 09:43:33;;;;;;;3.50;3.20;;;20.40;1.00;;;;;;5046302;28;20470;-78
2023/08/31 09:46:01;;;;;;;3.50;2.50;;;20.00;1.00;;;;;;5037280;28;20535;-77
2023/08/31 09:48:30;;;;;;;4.27;2.90;;;19.50;1.00;;;;;;5047287;27;21073;-79
2023/08/31 09:50:57;;;;;;;2.87;2.53;;;19.70;1.00;;;;;;5062908;28;20485;-78
2023/08/31 09:53:25;;;;;;;3.10;2.00;;;20.50;1.00;;;;;;5068241;28;20468;-78
2023/08/31 09:55:55;;;;;;;2.73;2.07;;;21.90;1.00;;;;;;5043614;28;20477;-78
2023/08/31 09:58:31;;;;;;;4.33;2.60;;;23.40;1.00;;;;;;5057113;28;20567;-83
2023/08/31 10:00:59;;;;;;;4.93;2.87;;;23.60;1.00;;;;;;5060203;28;20459;-82
2023/08/31 10:03:27;;;;;;;6.13;2.57;;;23.10;1.00;;;;;;5064616;28;20476;-78
2023/08/31 10:05:56;;;;;;;2.50;1.80;;;22.90;1.00;;;;;;5066098;28;20903;-79
2023/08/31 10:08:25;;;;;;;2.60;2.07;;;23.20;1.00;;;;;;5064894;28;20495;-77
2023/08/31 10:10:55;;;;;;;2.20;1.90;;;24.20;1.00;;;;;;5063402;28;20873;-78
2023/08/31 10:13:23;;;;;;;3.97;3.00;;;23.70;1.00;;;;;;5066515;28;20448;-79
2023/08/31 10:15:50;;;;;;;1.70;1.50;;;23.40;1.00;;;;;;5065533;28;20452;-77
2023/08/31 10:18:18;;;;;;;4.10;2.20;;;23.60;1.00;;;;;;5065462;28;20471;-79
2023/08/31 10:20:46;;;;;;;2.07;1.50;;;23.30;1.00;;;;;;5066148;28;20543;-79
2023/08/31 10:23:14;;;;;;;3.10;1.40;;;24.30;1.00;;;;;;5066975;28;20539;-79
2023/08/31 10:26:06;;;;;;;2.77;1.70;;;26.00;1.00;;;;;;5069752;28;20445;-80
2023/08/31 10:28:42;;;;;;;1.33;1.23;;;27.20;1.00;;;;;;5065282;28;20450;-79
2023/08/31 10:31:11;;;;;;;3.90;1.30;;;28.30;1.00;;;;;;5064129;28;21182;-78
2023/08/31 10:33:42;;;;;;;4.30;1.63;;;29.30;1.00;;;;;;5068086;28;20460;-81
2023/08/31 10:36:14;;;;;;;2.87;1.43;;;29.90;1.00;;;;;;5064617;27;20449;-82
2023/08/31 10:38:42;;;;;;;1.63;1.40;;;29.70;1.00;;;;;;5065814;28;20549;-85
2023/08/31 10:41:24;;;;;;;5.90;5.40;;;28.80;1.00;;;;;;5065553;28;20513;-84
2023/08/31 10:43:54;;;;;;;2.00;1.67;;;26.90;1.00;;;;;;5067526;27;20569;-81
2023/08/31 10:46:32;;;;;;;2.00;1.67;;;25.40;1.00;;;;;;5068260;28;20453;-81
2023/08/31 10:49:00;;;;;;;3.10;1.50;;;23.20;1.00;;;;;;5071366;28;20473;-81
2023/08/31 10:51:29;;;;;;;8.17;2.30;;;21.10;1.00;;;;;;5061583;27;20471;-83
2023/08/31 10:54:10;;;;;;;3.47;2.00;;;19.50;1.00;;;;;;5066326;28;20510;-85
2023/08/31 10:57:00;;;;;;;2.63;1.63;;;18.20;1.00;;;;;;5065907;28;20452;-82
2023/08/31 10:59:41;;;;;;;6.63;3.03;;;17.10;1.00;;;;;;5056950;28;20440;-81
2023/08/31 11:02:08;;;;;;;3.00;1.97;;;16.60;1.00;;;;;;5071688;28;20420;-82
2023/08/31 11:04:54;;;;;;;3.73;2.83;;;16.20;1.00;;;;;;5067371;28;20428;-81
2023/08/31 11:07:25;;;;;;;3.40;2.93;;;15.80;1.00;;;;;;5064097;27;20578;-81
2023/08/31 11:09:53;;;;;;;4.30;2.60;;;15.70;1.00;;;;;;5065470;28;20447;-84
2023/08/31 11:12:24;;;;;;;4.00;3.33;;;15.60;1.00;;;;;;5074473;28;20551;-82
2023/08/31 11:15:10;;;;;;;3.83;2.30;;;15.60;1.00;;;;;;5069605;28;20517;-81
2023/08/31 11:17:40;;;;;;;3.33;2.90;;;15.70;1.00;;;;;;5067343;28;20465;-81
2023/08/31 11:20:09;;;;;;;4.43;2.77;;;15.80;1.00;;;;;;5066668;28;20475;-80
2023/08/31 11:23:05;;;;;;;3.97;2.90;;;16.00;1.00;;;;;;5073430;28;20468;-85
2023/08/31 11:25:35;;;;;;;3.13;2.83;;;16.40;1.00;;;;;;5066892;28;20498;-83
2023/08/31 11:28:09;;;;;;;2.77;2.23;;;17.40;1.00;;;;;;5052472;28;20904;-83
2023/08/31 11:30:37;;;;;;;4.07;2.40;;;19.10;1.00;;;;;;5040335;28;20475;-84
2023/08/31 11:33:07;;;;;;;3.00;2.53;;;21.10;1.00;;;;;;5046908;28;20507;-85
2023/08/31 11:35:42;;;;;;;4.80;2.77;;;23.00;1.00;;;;;;5054532;28;20456;-83
2023/08/31 11:38:09;;;;;;;2.00;1.53;;;24.90;1.00;;;;;;5051253;28;20481;-81
2023/08/31 11:40:37;;;;;;;2.20;1.57;;;26.50;1.00;;;;;;5037127;28;20487;-84
2023/08/31 11:43:09;;;;;;;2.70;2.30;;;28.20;1.00;;;;;;5047967;28;20458;-86
2023/08/31 11:45:37;;;;;;;2.63;1.90;;;29.30;1.00;;;;;;5048682;28;20483;-81
2023/08/31 11:48:05;;;;;;;4.53;2.40;;;30.30;1.00;;;;;;5048591;28;20552;-83
2023/08/31 11:50:37;;;;;;;3.03;1.80;;;31.00;1.00;;;;;;5058305;27;20522;-83
2023/08/31 11:53:05;;;;;;;1.87;1.70;;;31.60;1.00;;;;;;5040778;28;20465;-79
2023/08/31 11:55:51;;;;;;;3.30;1.97;;;32.30;1.00;;;;;;5055936;28;21058;-83
2023/08/31 11:58:19;;;;;;;1.77;1.67;;;32.70;1.00;;;;;;5067219;28;20807;-80
2023/08/31 12:00:48;;;;;;;3.90;1.93;;;32.80;1.00;;;;;;5070119;28;20470;-79
2023/08/31 12:03:20;;;;;;;1.67;1.57;;;31.60;1.00;;;;;;5065854;28;20490;-80
2023/08/31 12:05:51;;;;;;;2.23;1.80;;;30.10;1.00;;;;;;5070971;28;20533;-78
2023/08/31 12:08:36;;;;;;;3.27;2.07;;;28.30;1.00;;;;;;5057660;27;20460;-80
2023/08/31 12:11:03;;;;;;;3.07;2.40;;;26.50;1.00;;;;;;5049415;28;20474;-80
2023/08/31 12:13:34;;;;;;;3.27;2.93;;;25.00;1.00;;;;;;5052657;28;20525;-82
2023/08/31 12:16:12;;;;;;;7.37;4.77;;;23.20;1.00;;;;;;5048171;28;20464;-79
2023/08/31 12:18:39;;;;;;;9.27;5.37;;;21.50;1.00;;;;;;5039544;28;20962;-78
2023/08/31 12:21:07;;;;;;;7.93;4.17;;;19.70;1.00;;;;;;5052304;28;20464;-80
2023/08/31 12:23:34;;;;;;;3.53;3.23;;;18.20;1.00;;;;;;5046351;28;20481;-78
2023/08/31 12:26:02;;;;;;;5.20;3.30;;;17.40;1.00;;;;;;5045792;28;20921;-78
2023/08/31 12:28:29;;;;;;;4.73;3.83;;;17.20;1.00;;;;;;5059363;28;20909;-81
2023/08/31 12:31:07;;;;;;;3.83;3.30;;;17.10;1.00;;;;;;5064976;28;20454;-85
2023/08/31 12:33:35;;;;;;;4.93;2.57;;;17.80;1.00;;;;;;5064241;28;20451;-85
2023/08/31 12:36:02;;;;;;;7.00;6.17;;;17.90;1.00;;;;;;5059825;28;20456;-84
2023/08/31 12:38:29;;;;;;;4.40;2.60;;;17.90;1.00;;;;;;5073298;28;20441;-86
2023/08/31 12:40:56;;;;;;;5.07;3.23;;;17.90;1.00;;;;;;5068127;27;21093;-79
2023/08/31 12:43:23;;;;;;;3.90;2.60;;;17.60;1.00;;;;;;5056347;28;20567;-79
2023/08/31 12:45:50;;;;;;;3.87;3.47;;;17.20;1.00;;;;;;5051538;28;20524;-75
2023/08/31 12:48:25;;;;;;;3.40;2.60;;;16.80;1.00;;;;;;5046499;28;20457;-79
2023/08/31 12:50:53;;;;;;;5.20;3.63;;;16.40;1.00;;;;;;5064125;27;20571;-79
2023/08/31 12:53:23;;;;;;;5.67;3.90;;;16.10;1.00;;;;;;5049651;28;20468;-78
2023/08/31 12:56:01;;;;;;;5.40;3.70;;;16.00;1.00;;;;;;5051522;28;20472;-78
2023/08/31 12:58:42;;;;;;;3.93;3.60;;;16.10;1.00;;;;;;5045130;28;23034;-79
2023/08/31 13:01:10;;;;;;;4.00;3.10;;;16.50;1.00;;;;;;5080320;27;20451;-78
2023/08/31 13:03:39;;;;;;;6.70;3.90;;;16.80;1.00;;;;;;5060774;28;20455;-82
2023/08/31 13:06:09;;;;;;;3.83;2.90;;;18.00;1.00;;;;;;5074145;28;20984;-80
2023/08/31 13:08:36;;;;;;;2.33;1.77;;;20.20;1.00;;;;;;5071740;27;20443;-76